sensor_id;sensor_type;location;lat;lon;timestamp;P1;durP1;ratioP1;P2;durP2;ratioP2
31500;SDS011;31032;49.512;10.892;2022-08-19T00:01:48;18.10;;;11.70;;
31500;SDS011;31032;49.512;10.892;2022-08-19T00:04:15;19.73;;;12.77;;
31500;SDS011;31032;49.512;10.892;2022-08-19T00:06:43;18.48;;;12.02;;
31500;SDS011;31032;49.512;10.892;2022-08-19T00:09:12;18.48;;;11.98;;
31500;SDS011;31032;49.512;10.892;2022-08-19T00:11:39;19.83;;;12.63;;
31500;SDS011;31032;49.512;10.892;2022-08-19T00:14:06;20.10;;;13.00;;
31500;SDS011;31032;49.512;10.892;2022-08-19T00:16:34;20.58;;;11.68;;
31500;SDS011;31032;49.512;10.892;2022-08-19T00:19:00;17.60;;;12.30;;
31500;SDS011;31032;49.512;10.892;2022-08-19T00:21:26;21.15;;;13.27;;
31500;SDS011;31032;49.512;10.892;2022-08-19T00:23:52;19.40;;;11.75;;
31500;SDS011;31032;49.512;10.892;2022-08-19T00:26:18;20.17;;;12.18;;
31500;SDS011;31032;49.512;10.892;2022-08-19T00:28:44;19.05;;;12.07;;
31500;SDS011;31032;49.512;10.892;2022-08-19T00:31:11;21.70;;;11.93;;
31500;SDS011;31032;49.512;10.892;2022-08-19T00:33:36;17.38;;;12.40;;
31500;SDS011;31032;49.512;10.892;2022-08-19T00:36:03;17.67;;;12.00;;
31500;SDS011;31032;49.512;10.892;2022-08-19T00:38:31;20.15;;;11.95;;
31500;SDS011;31032;49.512;10.892;2022-08-19T00:40:57;22.77;;;12.40;;
31500;SDS011;31032;49.512;10.892;2022-08-19T00:43:24;18.42;;;11.85;;
31500;SDS011;31032;49.512;10.892;2022-08-19T00:45:51;20.30;;;11.25;;
31500;SDS011;31032;49.512;10.892;2022-08-19T00:48:17;17.15;;;12.10;;
31500;SDS011;31032;49.512;10.892;2022-08-19T00:50:44;19.25;;;12.18;;
31500;SDS011;31032;49.512;10.892;2022-08-19T00:53:11;23.55;;;13.27;;
31500;SDS011;31032;49.512;10.892;2022-08-19T00:55:40;23.40;;;13.00;;
31500;SDS011;31032;49.512;10.892;2022-08-19T00:58:08;25.55;;;13.48;;
31500;SDS011;31032;49.512;10.892;2022-08-19T01:00:37;22.20;;;13.73;;
31500;SDS011;31032;49.512;10.892;2022-08-19T01:03:07;23.00;;;13.00;;
31500;SDS011;31032;49.512;10.892;2022-08-19T01:05:34;21.98;;;13.27;;
31500;SDS011;31032;49.512;10.892;2022-08-19T01:08:02;20.42;;;12.45;;
31500;SDS011;31032;49.512;10.892;2022-08-19T01:10:31;20.70;;;12.68;;
31500;SDS011;31032;49.512;10.892;2022-08-19T01:13:00;22.13;;;13.18;;
31500;SDS011;31032;49.512;10.892;2022-08-19T01:15:29;22.40;;;12.90;;
31500;SDS011;31032;49.512;10.892;2022-08-19T01:17:59;24.35;;;13.90;;
31500;SDS011;31032;49.512;10.892;2022-08-19T01:20:29;22.10;;;12.32;;
31500;SDS011;31032;49.512;10.892;2022-08-19T01:22:57;22.73;;;13.20;;
31500;SDS011;31032;49.512;10.892;2022-08-19T01:25:28;23.55;;;13.93;;
31500;SDS011;31032;49.512;10.892;2022-08-19T01:27:56;22.42;;;12.93;;
31500;SDS011;31032;49.512;10.892;2022-08-19T01:30:27;21.25;;;13.45;;
31500;SDS011;31032;49.512;10.892;2022-08-19T01:32:55;22.17;;;12.93;;
31500;SDS011;31032;49.512;10.892;2022-08-19T01:35:22;25.00;;;13.52;;
31500;SDS011;31032;49.512;10.892;2022-08-19T01:37:54;22.85;;;12.80;;
31500;SDS011;31032;49.512;10.892;2022-08-19T01:40:23;23.40;;;13.30;;
31500;SDS011;31032;49.512;10.892;2022-08-19T01:42:51;20.60;;;12.55;;
31500;SDS011;31032;49.512;10.892;2022-08-19T01:45:17;24.52;;;13.93;;
31500;SDS011;31032;49.512;10.892;2022-08-19T01:47:44;23.73;;;13.70;;
31500;SDS011;31032;49.512;10.892;2022-08-19T01:50:10;22.40;;;14.48;;
31500;SDS011;31032;49.512;10.892;2022-08-19T01:52:37;24.27;;;13.50;;
31500;SDS011;31032;49.512;10.892;2022-08-19T01:55:06;24.48;;;14.13;;
31500;SDS011;31032;49.512;10.892;2022-08-19T01:57:34;23.15;;;13.52;;
31500;SDS011;31032;49.512;10.892;2022-08-19T02:00:00;27.80;;;14.32;;
31500;SDS011;31032;49.512;10.892;2022-08-19T02:02:27;26.58;;;15.15;;
31500;SDS011;31032;49.512;10.892;2022-08-19T02:04:52;26.30;;;14.77;;
31500;SDS011;31032;49.512;10.892;2022-08-19T02:07:21;26.67;;;13.98;;
31500;SDS011;31032;49.512;10.892;2022-08-19T02:09:47;26.73;;;14.27;;
31500;SDS011;31032;49.512;10.892;2022-08-19T02:12:13;25.52;;;14.82;;
31500;SDS011;31032;49.512;10.892;2022-08-19T02:14:39;27.40;;;14.65;;
31500;SDS011;31032;49.512;10.892;2022-08-19T02:17:05;26.25;;;14.52;;
31500;SDS011;31032;49.512;10.892;2022-08-19T02:19:30;31.48;;;14.93;;
31500;SDS011;31032;49.512;10.892;2022-08-19T02:21:58;23.60;;;13.68;;
31500;SDS011;31032;49.512;10.892;2022-08-19T02:24:24;24.42;;;14.10;;
31500;SDS011;31032;49.512;10.892;2022-08-19T02:26:50;27.83;;;15.48;;
31500;SDS011;31032;49.512;10.892;2022-08-19T02:29:16;24.17;;;14.13;;
31500;SDS011;31032;49.512;10.892;2022-08-19T02:31:41;25.80;;;14.65;;
31500;SDS011;31032;49.512;10.892;2022-08-19T02:34:06;26.92;;;14.15;;
31500;SDS011;31032;49.512;10.892;2022-08-19T02:36:32;23.60;;;13.88;;
31500;SDS011;31032;49.512;10.892;2022-08-19T02:38:57;26.35;;;14.40;;
31500;SDS011;31032;49.512;10.892;2022-08-19T02:41:25;25.85;;;14.93;;
31500;SDS011;31032;49.512;10.892;2022-08-19T02:43:54;25.30;;;14.13;;
31500;SDS011;31032;49.512;10.892;2022-08-19T02:46:22;25.63;;;14.50;;
31500;SDS011;31032;49.512;10.892;2022-08-19T02:51:21;26.23;;;14.48;;
31500;SDS011;31032;49.512;10.892;2022-08-19T02:53:50;25.88;;;13.63;;
31500;SDS011;31032;49.512;10.892;2022-08-19T02:56:16;23.40;;;13.40;;
31500;SDS011;31032;49.512;10.892;2022-08-19T02:58:42;23.52;;;13.25;;
31500;SDS011;31032;49.512;10.892;2022-08-19T03:01:08;23.63;;;13.82;;
31500;SDS011;31032;49.512;10.892;2022-08-19T03:03:35;25.42;;;14.25;;
31500;SDS011;31032;49.512;10.892;2022-08-19T03:06:08;26.10;;;14.43;;
31500;SDS011;31032;49.512;10.892;2022-08-19T03:08:37;26.67;;;14.38;;
31500;SDS011;31032;49.512;10.892;2022-08-19T03:11:02;27.08;;;15.40;;
31500;SDS011;31032;49.512;10.892;2022-08-19T03:13:28;26.48;;;14.32;;
31500;SDS011;31032;49.512;10.892;2022-08-19T03:15:54;27.70;;;15.20;;
31500;SDS011;31032;49.512;10.892;2022-08-19T03:18:19;26.45;;;14.50;;
31500;SDS011;31032;49.512;10.892;2022-08-19T03:20:49;23.65;;;13.82;;
31500;SDS011;31032;49.512;10.892;2022-08-19T03:23:17;28.38;;;14.73;;
31500;SDS011;31032;49.512;10.892;2022-08-19T03:25:44;29.90;;;14.55;;
31500;SDS011;31032;49.512;10.892;2022-08-19T03:28:12;28.23;;;14.50;;
31500;SDS011;31032;49.512;10.892;2022-08-19T03:30:39;26.45;;;14.68;;
31500;SDS011;31032;49.512;10.892;2022-08-19T03:33:06;27.85;;;15.10;;
31500;SDS011;31032;49.512;10.892;2022-08-19T03:35:33;26.55;;;14.02;;
31500;SDS011;31032;49.512;10.892;2022-08-19T03:38:01;30.35;;;14.45;;
31500;SDS011;31032;49.512;10.892;2022-08-19T03:40:27;23.65;;;13.98;;
31500;SDS011;31032;49.512;10.892;2022-08-19T03:42:52;28.42;;;14.98;;
31500;SDS011;31032;49.512;10.892;2022-08-19T03:45:17;28.80;;;15.35;;
31500;SDS011;31032;49.512;10.892;2022-08-19T03:47:43;27.65;;;14.45;;
31500;SDS011;31032;49.512;10.892;2022-08-19T03:50:08;25.00;;;14.10;;
31500;SDS011;31032;49.512;10.892;2022-08-19T03:52:34;29.17;;;15.48;;
31500;SDS011;31032;49.512;10.892;2022-08-19T03:55:01;30.75;;;15.20;;
31500;SDS011;31032;49.512;10.892;2022-08-19T03:57:26;28.90;;;14.68;;
31500;SDS011;31032;49.512;10.892;2022-08-19T03:59:52;26.63;;;13.90;;
31500;SDS011;31032;49.512;10.892;2022-08-19T04:02:17;30.45;;;15.25;;
31500;SDS011;31032;49.512;10.892;2022-08-19T04:04:42;27.85;;;14.95;;
31500;SDS011;31032;49.512;10.892;2022-08-19T04:07:09;28.70;;;15.25;;
31500;SDS011;31032;49.512;10.892;2022-08-19T04:09:37;26.02;;;14.52;;
31500;SDS011;31032;49.512;10.892;2022-08-19T04:12:03;32.65;;;15.43;;
31500;SDS011;31032;49.512;10.892;2022-08-19T04:14:30;32.20;;;15.18;;
31500;SDS011;31032;49.512;10.892;2022-08-19T04:16:57;31.90;;;14.95;;
31500;SDS011;31032;49.512;10.892;2022-08-19T04:19:23;31.58;;;15.95;;
31500;SDS011;31032;49.512;10.892;2022-08-19T04:21:50;29.70;;;14.25;;
31500;SDS011;31032;49.512;10.892;2022-08-19T04:24:17;29.80;;;15.43;;
31500;SDS011;31032;49.512;10.892;2022-08-19T04:26:44;28.90;;;15.40;;
31500;SDS011;31032;49.512;10.892;2022-08-19T04:29:12;29.15;;;15.50;;
31500;SDS011;31032;49.512;10.892;2022-08-19T04:31:43;26.92;;;14.27;;
31500;SDS011;31032;49.512;10.892;2022-08-19T04:34:10;31.67;;;15.18;;
31500;SDS011;31032;49.512;10.892;2022-08-19T04:36:37;26.02;;;14.10;;
31500;SDS011;31032;49.512;10.892;2022-08-19T04:39:06;30.73;;;15.05;;
31500;SDS011;31032;49.512;10.892;2022-08-19T04:44:18;23.95;;;13.10;;
31500;SDS011;31032;49.512;10.892;2022-08-19T04:46:48;27.52;;;14.35;;
31500;SDS011;31032;49.512;10.892;2022-08-19T04:49:16;29.40;;;14.32;;
31500;SDS011;31032;49.512;10.892;2022-08-19T04:51:44;25.13;;;13.38;;
31500;SDS011;31032;49.512;10.892;2022-08-19T04:54:15;26.30;;;13.98;;
31500;SDS011;31032;49.512;10.892;2022-08-19T04:56:41;29.65;;;14.70;;
31500;SDS011;31032;49.512;10.892;2022-08-19T04:59:07;38.20;;;17.48;;
31500;SDS011;31032;49.512;10.892;2022-08-19T05:01:33;28.58;;;14.98;;
31500;SDS011;31032;49.512;10.892;2022-08-19T05:04:00;28.42;;;13.95;;
31500;SDS011;31032;49.512;10.892;2022-08-19T05:06:26;26.15;;;14.70;;
31500;SDS011;31032;49.512;10.892;2022-08-19T05:08:53;26.60;;;13.52;;
31500;SDS011;31032;49.512;10.892;2022-08-19T05:11:24;26.77;;;14.50;;
31500;SDS011;31032;49.512;10.892;2022-08-19T05:13:51;26.27;;;14.63;;
31500;SDS011;31032;49.512;10.892;2022-08-19T05:16:20;25.88;;;13.43;;
31500;SDS011;31032;49.512;10.892;2022-08-19T05:18:47;25.10;;;13.73;;
31500;SDS011;31032;49.512;10.892;2022-08-19T05:21:32;25.60;;;14.30;;
31500;SDS011;31032;49.512;10.892;2022-08-19T05:24:17;27.80;;;14.45;;
31500;SDS011;31032;49.512;10.892;2022-08-19T05:26:45;27.38;;;14.23;;
31500;SDS011;31032;49.512;10.892;2022-08-19T05:29:16;24.58;;;13.45;;
31500;SDS011;31032;49.512;10.892;2022-08-19T05:31:44;26.33;;;14.07;;
31500;SDS011;31032;49.512;10.892;2022-08-19T05:34:10;22.23;;;12.90;;
31500;SDS011;31032;49.512;10.892;2022-08-19T05:36:38;27.48;;;14.00;;
31500;SDS011;31032;49.512;10.892;2022-08-19T05:39:06;31.25;;;14.93;;
31500;SDS011;31032;49.512;10.892;2022-08-19T05:41:33;30.67;;;15.57;;
31500;SDS011;31032;49.512;10.892;2022-08-19T05:44:01;26.40;;;14.07;;
31500;SDS011;31032;49.512;10.892;2022-08-19T05:46:30;24.08;;;12.75;;
31500;SDS011;31032;49.512;10.892;2022-08-19T05:48:56;26.35;;;13.68;;
31500;SDS011;31032;49.512;10.892;2022-08-19T05:51:22;26.27;;;13.60;;
31500;SDS011;31032;49.512;10.892;2022-08-19T05:53:48;26.10;;;13.05;;
31500;SDS011;31032;49.512;10.892;2022-08-19T05:56:15;28.00;;;14.13;;
31500;SDS011;31032;49.512;10.892;2022-08-19T05:58:41;25.70;;;13.52;;
31500;SDS011;31032;49.512;10.892;2022-08-19T06:01:15;24.52;;;13.35;;
31500;SDS011;31032;49.512;10.892;2022-08-19T06:03:42;24.25;;;12.80;;
31500;SDS011;31032;49.512;10.892;2022-08-19T06:06:09;26.58;;;13.30;;
31500;SDS011;31032;49.512;10.892;2022-08-19T06:08:36;23.45;;;11.85;;
31500;SDS011;31032;49.512;10.892;2022-08-19T06:11:18;24.55;;;12.98;;
31500;SDS011;31032;49.512;10.892;2022-08-19T06:13:47;26.02;;;14.70;;
31500;SDS011;31032;49.512;10.892;2022-08-19T06:16:16;21.55;;;11.93;;
31500;SDS011;31032;49.512;10.892;2022-08-19T06:18:47;21.40;;;12.80;;
31500;SDS011;31032;49.512;10.892;2022-08-19T06:21:15;24.83;;;13.75;;
31500;SDS011;31032;49.512;10.892;2022-08-19T06:23:40;25.13;;;12.98;;
31500;SDS011;31032;49.512;10.892;2022-08-19T06:26:06;27.50;;;13.80;;
31500;SDS011;31032;49.512;10.892;2022-08-19T06:28:32;27.10;;;14.38;;
31500;SDS011;31032;49.512;10.892;2022-08-19T06:30:58;26.42;;;13.48;;
31500;SDS011;31032;49.512;10.892;2022-08-19T06:33:23;23.42;;;12.35;;
31500;SDS011;31032;49.512;10.892;2022-08-19T06:35:49;22.92;;;12.55;;
31500;SDS011;31032;49.512;10.892;2022-08-19T06:38:14;26.67;;;13.15;;
31500;SDS011;31032;49.512;10.892;2022-08-19T06:40:39;24.08;;;12.80;;
31500;SDS011;31032;49.512;10.892;2022-08-19T06:43:05;25.38;;;13.05;;
31500;SDS011;31032;49.512;10.892;2022-08-19T06:45:30;25.70;;;13.57;;
31500;SDS011;31032;49.512;10.892;2022-08-19T06:47:55;25.20;;;12.85;;
31500;SDS011;31032;49.512;10.892;2022-08-19T06:50:24;21.00;;;11.75;;
31500;SDS011;31032;49.512;10.892;2022-08-19T06:52:59;22.83;;;11.70;;
31500;SDS011;31032;49.512;10.892;2022-08-19T06:55:24;20.77;;;11.68;;
31500;SDS011;31032;49.512;10.892;2022-08-19T06:57:49;24.90;;;12.05;;
31500;SDS011;31032;49.512;10.892;2022-08-19T07:00:18;20.17;;;10.73;;
31500;SDS011;31032;49.512;10.892;2022-08-19T07:02:43;17.65;;;10.55;;
31500;SDS011;31032;49.512;10.892;2022-08-19T07:05:09;22.58;;;11.00;;
31500;SDS011;31032;49.512;10.892;2022-08-19T07:07:35;21.25;;;10.90;;
31500;SDS011;31032;49.512;10.892;2022-08-19T07:10:00;19.52;;;11.07;;
31500;SDS011;31032;49.512;10.892;2022-08-19T07:12:27;21.83;;;11.68;;
31500;SDS011;31032;49.512;10.892;2022-08-19T07:14:54;18.75;;;11.45;;
31500;SDS011;31032;49.512;10.892;2022-08-19T07:17:19;23.30;;;11.90;;
31500;SDS011;31032;49.512;10.892;2022-08-19T07:19:45;24.10;;;12.52;;
31500;SDS011;31032;49.512;10.892;2022-08-19T07:22:10;22.17;;;11.75;;
31500;SDS011;31032;49.512;10.892;2022-08-19T07:24:36;24.08;;;12.52;;
31500;SDS011;31032;49.512;10.892;2022-08-19T07:27:03;19.70;;;11.38;;
31500;SDS011;31032;49.512;10.892;2022-08-19T07:29:31;25.77;;;12.82;;
31500;SDS011;31032;49.512;10.892;2022-08-19T07:31:58;21.83;;;12.03;;
31500;SDS011;31032;49.512;10.892;2022-08-19T07:34:25;22.55;;;11.80;;
31500;SDS011;31032;49.512;10.892;2022-08-19T07:36:52;24.80;;;12.88;;
31500;SDS011;31032;49.512;10.892;2022-08-19T07:39:26;21.58;;;12.07;;
31500;SDS011;31032;49.512;10.892;2022-08-19T07:41:53;20.38;;;11.73;;
31500;SDS011;31032;49.512;10.892;2022-08-19T07:44:20;23.27;;;11.32;;
31500;SDS011;31032;49.512;10.892;2022-08-19T07:46:47;21.73;;;11.98;;
31500;SDS011;31032;49.512;10.892;2022-08-19T07:49:15;22.25;;;11.43;;
31500;SDS011;31032;49.512;10.892;2022-08-19T07:51:45;22.52;;;12.00;;
31500;SDS011;31032;49.512;10.892;2022-08-19T07:54:15;22.85;;;11.73;;
31500;SDS011;31032;49.512;10.892;2022-08-19T07:56:41;20.83;;;11.60;;
31500;SDS011;31032;49.512;10.892;2022-08-19T07:59:06;19.38;;;11.07;;
31500;SDS011;31032;49.512;10.892;2022-08-19T08:01:34;24.08;;;12.13;;
31500;SDS011;31032;49.512;10.892;2022-08-19T08:04:00;23.80;;;12.52;;
31500;SDS011;31032;49.512;10.892;2022-08-19T08:06:44;22.50;;;11.27;;
31500;SDS011;31032;49.512;10.892;2022-08-19T08:09:32;20.98;;;11.15;;
31500;SDS011;31032;49.512;10.892;2022-08-19T08:12:01;23.33;;;11.85;;
31500;SDS011;31032;49.512;10.892;2022-08-19T08:14:44;25.23;;;11.95;;
31500;SDS011;31032;49.512;10.892;2022-08-19T08:17:13;27.23;;;13.02;;
31500;SDS011;31032;49.512;10.892;2022-08-19T08:19:43;21.95;;;11.68;;
31500;SDS011;31032;49.512;10.892;2022-08-19T08:22:10;22.77;;;12.35;;
31500;SDS011;31032;49.512;10.892;2022-08-19T08:25:06;23.23;;;12.23;;
31500;SDS011;31032;49.512;10.892;2022-08-19T08:27:37;21.98;;;12.20;;
31500;SDS011;31032;49.512;10.892;2022-08-19T08:30:08;21.70;;;11.70;;
31500;SDS011;31032;49.512;10.892;2022-08-19T08:32:36;26.10;;;12.80;;
31500;SDS011;31032;49.512;10.892;2022-08-19T08:35:02;23.83;;;13.07;;
31500;SDS011;31032;49.512;10.892;2022-08-19T08:37:31;23.40;;;11.85;;
31500;SDS011;31032;49.512;10.892;2022-08-19T08:39:57;25.88;;;12.38;;
31500;SDS011;31032;49.512;10.892;2022-08-19T08:42:24;20.65;;;12.45;;
31500;SDS011;31032;49.512;10.892;2022-08-19T08:45:05;21.40;;;12.02;;
31500;SDS011;31032;49.512;10.892;2022-08-19T08:47:41;22.33;;;12.18;;
31500;SDS011;31032;49.512;10.892;2022-08-19T08:50:25;20.77;;;11.13;;
31500;SDS011;31032;49.512;10.892;2022-08-19T08:53:00;22.85;;;12.48;;
31500;SDS011;31032;49.512;10.892;2022-08-19T08:55:27;21.83;;;10.90;;
31500;SDS011;31032;49.512;10.892;2022-08-19T08:58:01;19.23;;;10.90;;
31500;SDS011;31032;49.512;10.892;2022-08-19T09:00:34;22.90;;;12.02;;
31500;SDS011;31032;49.512;10.892;2022-08-19T09:03:03;21.08;;;11.40;;
31500;SDS011;31032;49.512;10.892;2022-08-19T09:06:18;22.88;;;11.88;;
31500;SDS011;31032;49.512;10.892;2022-08-19T09:08:34;22.38;;;11.00;;
31500;SDS011;31032;49.512;10.892;2022-08-19T09:11:24;22.77;;;11.40;;
31500;SDS011;31032;49.512;10.892;2022-08-19T09:16:31;20.45;;;11.63;;
31500;SDS011;31032;49.512;10.892;2022-08-19T09:19:07;20.10;;;12.60;;
31500;SDS011;31032;49.512;10.892;2022-08-19T09:21:34;20.65;;;11.85;;
31500;SDS011;31032;49.512;10.892;2022-08-19T09:24:00;17.98;;;11.40;;
31500;SDS011;31032;49.512;10.892;2022-08-19T09:26:27;19.17;;;10.82;;
31500;SDS011;31032;49.512;10.892;2022-08-19T09:28:52;19.55;;;11.25;;
31500;SDS011;31032;49.512;10.892;2022-08-19T09:31:20;19.52;;;11.82;;
31500;SDS011;31032;49.512;10.892;2022-08-19T09:33:48;20.13;;;11.18;;
31500;SDS011;31032;49.512;10.892;2022-08-19T09:36:15;19.13;;;10.82;;
31500;SDS011;31032;49.512;10.892;2022-08-19T09:38:43;19.55;;;10.23;;
31500;SDS011;31032;49.512;10.892;2022-08-19T09:41:14;19.13;;;10.70;;
31500;SDS011;31032;49.512;10.892;2022-08-19T09:43:43;20.90;;;10.60;;
31500;SDS011;31032;49.512;10.892;2022-08-19T09:48:36;17.90;;;10.57;;
31500;SDS011;31032;49.512;10.892;2022-08-19T09:51:04;20.15;;;11.52;;
31500;SDS011;31032;49.512;10.892;2022-08-19T09:53:31;20.17;;;10.15;;
31500;SDS011;31032;49.512;10.892;2022-08-19T09:55:56;17.13;;;10.15;;
31500;SDS011;31032;49.512;10.892;2022-08-19T09:58:22;16.10;;;9.95;;
31500;SDS011;31032;49.512;10.892;2022-08-19T10:00:52;18.85;;;9.88;;
31500;SDS011;31032;49.512;10.892;2022-08-19T10:03:20;18.02;;;10.52;;
31500;SDS011;31032;49.512;10.892;2022-08-19T10:05:45;15.73;;;9.55;;
31500;SDS011;31032;49.512;10.892;2022-08-19T10:08:14;16.88;;;9.68;;
31500;SDS011;31032;49.512;10.892;2022-08-19T10:10:41;16.20;;;9.13;;
31500;SDS011;31032;49.512;10.892;2022-08-19T10:13:08;16.48;;;9.45;;
31500;SDS011;31032;49.512;10.892;2022-08-19T10:15:34;16.15;;;9.57;;
31500;SDS011;31032;49.512;10.892;2022-08-19T10:17:59;18.13;;;9.77;;
31500;SDS011;31032;49.512;10.892;2022-08-19T10:20:25;19.10;;;11.07;;
31500;SDS011;31032;49.512;10.892;2022-08-19T10:22:50;18.10;;;9.73;;
31500;SDS011;31032;49.512;10.892;2022-08-19T10:25:16;15.23;;;9.35;;
31500;SDS011;31032;49.512;10.892;2022-08-19T10:27:42;15.07;;;9.15;;
31500;SDS011;31032;49.512;10.892;2022-08-19T10:30:08;16.75;;;9.30;;
31500;SDS011;31032;49.512;10.892;2022-08-19T10:32:34;16.13;;;9.48;;
31500;SDS011;31032;49.512;10.892;2022-08-19T10:35:00;16.80;;;9.05;;
31500;SDS011;31032;49.512;10.892;2022-08-19T10:37:26;14.95;;;9.15;;
31500;SDS011;31032;49.512;10.892;2022-08-19T10:39:51;14.60;;;9.38;;
31500;SDS011;31032;49.512;10.892;2022-08-19T10:42:16;15.38;;;8.13;;
31500;SDS011;31032;49.512;10.892;2022-08-19T10:44:43;15.57;;;8.43;;
31500;SDS011;31032;49.512;10.892;2022-08-19T10:47:09;14.75;;;8.90;;
31500;SDS011;31032;49.512;10.892;2022-08-19T10:49:35;14.38;;;8.77;;
31500;SDS011;31032;49.512;10.892;2022-08-19T10:52:21;13.88;;;8.63;;
31500;SDS011;31032;49.512;10.892;2022-08-19T10:54:59;16.63;;;8.43;;
31500;SDS011;31032;49.512;10.892;2022-08-19T10:57:47;12.85;;;8.20;;
31500;SDS011;31032;49.512;10.892;2022-08-19T11:00:12;15.05;;;8.23;;
31500;SDS011;31032;49.512;10.892;2022-08-19T11:02:38;15.30;;;9.43;;
31500;SDS011;31032;49.512;10.892;2022-08-19T11:05:04;16.15;;;9.55;;
31500;SDS011;31032;49.512;10.892;2022-08-19T11:07:30;16.10;;;9.40;;
31500;SDS011;31032;49.512;10.892;2022-08-19T11:09:55;14.60;;;8.90;;
31500;SDS011;31032;49.512;10.892;2022-08-19T11:12:21;14.50;;;8.52;;
31500;SDS011;31032;49.512;10.892;2022-08-19T11:14:46;13.52;;;8.45;;
31500;SDS011;31032;49.512;10.892;2022-08-19T11:17:14;13.65;;;7.70;;
31500;SDS011;31032;49.512;10.892;2022-08-19T11:19:40;22.70;;;9.77;;
31500;SDS011;31032;49.512;10.892;2022-08-19T11:22:08;12.98;;;8.77;;
31500;SDS011;31032;49.512;10.892;2022-08-19T11:24:34;13.80;;;8.52;;
31500;SDS011;31032;49.512;10.892;2022-08-19T11:27:02;12.93;;;8.98;;
31500;SDS011;31032;49.512;10.892;2022-08-19T11:29:31;12.95;;;8.27;;
31500;SDS011;31032;49.512;10.892;2022-08-19T11:31:56;12.98;;;8.30;;
31500;SDS011;31032;49.512;10.892;2022-08-19T11:34:23;11.93;;;7.63;;
31500;SDS011;31032;49.512;10.892;2022-08-19T11:36:52;11.68;;;8.20;;
31500;SDS011;31032;49.512;10.892;2022-08-19T11:39:20;12.85;;;8.40;;
31500;SDS011;31032;49.512;10.892;2022-08-19T11:41:47;14.63;;;8.05;;
31500;SDS011;31032;49.512;10.892;2022-08-19T11:44:12;11.25;;;8.20;;
31500;SDS011;31032;49.512;10.892;2022-08-19T11:46:39;13.80;;;8.10;;
31500;SDS011;31032;49.512;10.892;2022-08-19T11:49:06;12.15;;;7.70;;
31500;SDS011;31032;49.512;10.892;2022-08-19T11:51:32;12.43;;;7.25;;
31500;SDS011;31032;49.512;10.892;2022-08-19T11:53:58;10.20;;;6.72;;
31500;SDS011;31032;49.512;10.892;2022-08-19T11:56:25;12.90;;;7.50;;
31500;SDS011;31032;49.512;10.892;2022-08-19T11:58:52;10.10;;;6.68;;
31500;SDS011;31032;49.512;10.892;2022-08-19T12:01:19;10.48;;;6.95;;
31500;SDS011;31032;49.512;10.892;2022-08-19T12:03:46;9.18;;;6.65;;
31500;SDS011;31032;49.512;10.892;2022-08-19T12:06:14;10.52;;;6.78;;
31500;SDS011;31032;49.512;10.892;2022-08-19T12:08:43;12.50;;;7.75;;
31500;SDS011;31032;49.512;10.892;2022-08-19T12:11:09;12.30;;;8.00;;
31500;SDS011;31032;49.512;10.892;2022-08-19T12:13:36;14.45;;;8.40;;
31500;SDS011;31032;49.512;10.892;2022-08-19T12:16:17;14.13;;;8.63;;
31500;SDS011;31032;49.512;10.892;2022-08-19T12:18:44;12.52;;;7.85;;
31500;SDS011;31032;49.512;10.892;2022-08-19T12:21:18;13.43;;;9.07;;
31500;SDS011;31032;49.512;10.892;2022-08-19T12:23:50;13.25;;;9.35;;
31500;SDS011;31032;49.512;10.892;2022-08-19T12:26:16;15.27;;;9.68;;
31500;SDS011;31032;49.512;10.892;2022-08-19T12:28:42;14.50;;;9.40;;
31500;SDS011;31032;49.512;10.892;2022-08-19T12:31:08;16.45;;;10.02;;
31500;SDS011;31032;49.512;10.892;2022-08-19T12:33:37;16.55;;;10.23;;
31500;SDS011;31032;49.512;10.892;2022-08-19T12:36:03;16.08;;;10.52;;
31500;SDS011;31032;49.512;10.892;2022-08-19T12:38:30;17.17;;;11.02;;
31500;SDS011;31032;49.512;10.892;2022-08-19T12:40:57;19.80;;;12.73;;
31500;SDS011;31032;49.512;10.892;2022-08-19T12:43:23;26.48;;;12.80;;
31500;SDS011;31032;49.512;10.892;2022-08-19T12:45:49;22.45;;;13.68;;
31500;SDS011;31032;49.512;10.892;2022-08-19T12:48:14;22.85;;;13.27;;
31500;SDS011;31032;49.512;10.892;2022-08-19T12:50:40;22.67;;;12.77;;
31500;SDS011;31032;49.512;10.892;2022-08-19T12:53:07;21.92;;;13.60;;
31500;SDS011;31032;49.512;10.892;2022-08-19T12:55:32;23.45;;;13.55;;
31500;SDS011;31032;49.512;10.892;2022-08-19T12:57:58;19.98;;;12.77;;
31500;SDS011;31032;49.512;10.892;2022-08-19T13:00:25;21.75;;;13.80;;
31500;SDS011;31032;49.512;10.892;2022-08-19T13:02:51;24.52;;;14.82;;
31500;SDS011;31032;49.512;10.892;2022-08-19T13:05:18;21.02;;;13.73;;
31500;SDS011;31032;49.512;10.892;2022-08-19T13:07:47;23.60;;;14.10;;
31500;SDS011;31032;49.512;10.892;2022-08-19T13:10:14;24.98;;;14.20;;
31500;SDS011;31032;49.512;10.892;2022-08-19T13:12:42;25.48;;;14.40;;
31500;SDS011;31032;49.512;10.892;2022-08-19T13:15:09;22.00;;;13.93;;
31500;SDS011;31032;49.512;10.892;2022-08-19T13:17:35;26.85;;;15.13;;
31500;SDS011;31032;49.512;10.892;2022-08-19T13:20:02;21.55;;;14.18;;
31500;SDS011;31032;49.512;10.892;2022-08-19T13:22:27;24.95;;;15.20;;
31500;SDS011;31032;49.512;10.892;2022-08-19T13:24:53;23.08;;;14.18;;
31500;SDS011;31032;49.512;10.892;2022-08-19T13:27:18;24.85;;;14.18;;
31500;SDS011;31032;49.512;10.892;2022-08-19T13:29:44;23.30;;;13.13;;
31500;SDS011;31032;49.512;10.892;2022-08-19T13:32:29;23.77;;;14.27;;
31500;SDS011;31032;49.512;10.892;2022-08-19T13:35:13;22.55;;;15.23;;
31500;SDS011;31032;49.512;10.892;2022-08-19T13:37:40;28.25;;;15.43;;
31500;SDS011;31032;49.512;10.892;2022-08-19T13:42:43;24.88;;;13.93;;
31500;SDS011;31032;49.512;10.892;2022-08-19T13:45:14;24.30;;;14.20;;
31500;SDS011;31032;49.512;10.892;2022-08-19T13:47:41;22.83;;;14.02;;
31500;SDS011;31032;49.512;10.892;2022-08-19T13:50:13;24.48;;;14.63;;
31500;SDS011;31032;49.512;10.892;2022-08-19T13:52:40;23.70;;;14.57;;
31500;SDS011;31032;49.512;10.892;2022-08-19T13:55:07;23.42;;;13.15;;
31500;SDS011;31032;49.512;10.892;2022-08-19T13:57:33;24.23;;;14.75;;
31500;SDS011;31032;49.512;10.892;2022-08-19T13:59:59;25.15;;;13.88;;
31500;SDS011;31032;49.512;10.892;2022-08-19T14:02:25;25.60;;;14.20;;
31500;SDS011;31032;49.512;10.892;2022-08-19T14:04:51;21.45;;;13.75;;
31500;SDS011;31032;49.512;10.892;2022-08-19T14:07:17;22.70;;;13.02;;
31500;SDS011;31032;49.512;10.892;2022-08-19T14:09:42;24.15;;;13.55;;
31500;SDS011;31032;49.512;10.892;2022-08-19T14:12:08;18.10;;;12.15;;
31500;SDS011;31032;49.512;10.892;2022-08-19T14:14:37;19.80;;;12.55;;
31500;SDS011;31032;49.512;10.892;2022-08-19T14:17:06;17.45;;;9.90;;
31500;SDS011;31032;49.512;10.892;2022-08-19T14:19:33;16.55;;;10.27;;
31500;SDS011;31032;49.512;10.892;2022-08-19T14:21:58;17.67;;;10.55;;
31500;SDS011;31032;49.512;10.892;2022-08-19T14:24:24;16.33;;;9.18;;
31500;SDS011;31032;49.512;10.892;2022-08-19T14:26:49;14.93;;;8.77;;
31500;SDS011;31032;49.512;10.892;2022-08-19T14:29:14;17.27;;;8.77;;